sensor_id;sensor_type;location;lat;lon;timestamp;pressure;altitude;pressure_sealevel;temperature;humidity
28626;BME280;18905;42.668;23.364;2022-08-20T00:01:22;94713.00;;;25.63;72.56
28626;BME280;18905;42.668;23.364;2022-08-20T00:03:53;94675.22;;;25.34;73.51
28626;BME280;18905;42.668;23.364;2022-08-20T00:06:28;94610.50;;;24.85;73.99
28626;BME280;18905;42.668;23.364;2022-08-20T00:16:59;94714.13;;;25.20;77.95
28626;BME280;18905;42.668;23.364;2022-08-20T00:33:14;94603.53;;;24.24;79.72
28626;BME280;18905;42.668;23.364;2022-08-20T00:36:07;94710.34;;;24.84;80.93
28626;BME280;18905;42.668;23.364;2022-08-20T00:38:39;94586.28;;;23.87;82.47
28626;BME280;18905;42.668;23.364;2022-08-20T00:41:25;94578.94;;;23.77;83.51
28626;BME280;18905;42.668;23.364;2022-08-20T00:44:18;94586.59;;;23.62;84.44
28626;BME280;18905;42.668;23.364;2022-08-20T00:46:53;94590.03;;;23.70;84.40
28626;BME280;18905;42.668;23.364;2022-08-20T00:49:46;94575.91;;;23.64;84.96
28626;BME280;18905;42.668;23.364;2022-08-20T00:52:34;94633.63;;;24.12;84.28
28626;BME280;18905;42.668;23.364;2022-08-20T00:55:23;94574.25;;;23.74;84.69
28626;BME280;18905;42.668;23.364;2022-08-20T00:57:53;94583.44;;;23.94;82.34
28626;BME280;18905;42.668;23.364;2022-08-20T01:00:28;94669.38;;;24.49;83.12
28626;BME280;18905;42.668;23.364;2022-08-20T01:02:57;94698.47;;;24.57;84.45
28626;BME280;18905;42.668;23.364;2022-08-20T01:05:26;94644.94;;;24.21;84.68
28626;BME280;18905;42.668;23.364;2022-08-20T01:07:54;94635.94;;;24.17;86.85
28626;BME280;18905;42.668;23.364;2022-08-20T01:10:26;94646.47;;;24.25;84.72
28626;BME280;18905;42.668;23.364;2022-08-20T01:12:56;94678.72;;;24.32;85.99
28626;BME280;18905;42.668;23.364;2022-08-20T01:15:28;94572.19;;;23.48;88.18
28626;BME280;18905;42.668;23.364;2022-08-20T01:17:58;94627.31;;;23.81;87.15
28626;BME280;18905;42.668;23.364;2022-08-20T01:24:23;94539.38;;;23.27;87.25
28626;BME280;18905;42.668;23.364;2022-08-20T01:26:53;94673.28;;;24.25;86.38
28626;BME280;18905;42.668;23.364;2022-08-20T01:29:26;94576.88;;;23.51;89.36
28626;BME280;18905;42.668;23.364;2022-08-20T01:31:54;94582.69;;;23.60;87.59
28626;BME280;18905;42.668;23.364;2022-08-20T01:34:27;94669.97;;;24.07;88.34
28626;BME280;18905;42.668;23.364;2022-08-20T01:36:56;94594.22;;;23.51;88.77
28626;BME280;18905;42.668;23.364;2022-08-20T01:39:32;94537.50;;;23.17;89.23
28626;BME280;18905;42.668;23.364;2022-08-20T01:44:36;94628.63;;;23.70;89.10
28626;BME280;18905;42.668;23.364;2022-08-20T01:47:21;94596.25;;;23.44;90.30
28626;BME280;18905;42.668;23.364;2022-08-20T01:49:58;94593.13;;;23.42;90.92
28626;BME280;18905;42.668;23.364;2022-08-20T01:52:35;94604.03;;;23.52;90.79
28626;BME280;18905;42.668;23.364;2022-08-20T01:55:02;94511.41;;;22.91;91.55
28626;BME280;18905;42.668;23.364;2022-08-20T01:57:27;94537.56;;;23.10;91.50
28626;BME280;18905;42.668;23.364;2022-08-20T02:00:03;94634.38;;;23.82;90.87
28626;BME280;18905;42.668;23.364;2022-08-20T02:02:29;94535.16;;;23.15;92.00
28626;BME280;18905;42.668;23.364;2022-08-20T02:04:56;94660.03;;;23.76;94.28
28626;BME280;18905;42.668;23.364;2022-08-20T02:07:26;94539.47;;;23.16;93.24
28626;BME280;18905;42.668;23.364;2022-08-20T02:09:53;94540.78;;;23.05;94.11
28626;BME280;18905;42.668;23.364;2022-08-20T02:12:18;94605.69;;;23.43;94.19
28626;BME280;18905;42.668;23.364;2022-08-20T02:14:50;94546.19;;;23.12;93.21
28626;BME280;18905;42.668;23.364;2022-08-20T02:17:22;94618.50;;;23.60;93.05
28626;BME280;18905;42.668;23.364;2022-08-20T02:19:56;94617.53;;;23.77;90.93
28626;BME280;18905;42.668;23.364;2022-08-20T02:22:49;94546.75;;;23.37;90.31
28626;BME280;18905;42.668;23.364;2022-08-20T02:25:18;94625.13;;;23.99;90.45
28626;BME280;18905;42.668;23.364;2022-08-20T02:27:45;94660.75;;;24.17;90.33
28626;BME280;18905;42.668;23.364;2022-08-20T02:30:17;94586.50;;;23.69;90.35
28626;BME280;18905;42.668;23.364;2022-08-20T02:32:44;94597.78;;;23.82;90.93
28626;BME280;18905;42.668;23.364;2022-08-20T02:35:13;94557.09;;;23.59;91.36
28626;BME280;18905;42.668;23.364;2022-08-20T02:37:43;94607.13;;;23.88;92.25
28626;BME280;18905;42.668;23.364;2022-08-20T02:40:16;94651.03;;;24.09;93.00
28626;BME280;18905;42.668;23.364;2022-08-20T02:42:42;94566.88;;;23.64;91.66
28626;BME280;18905;42.668;23.364;2022-08-20T02:45:14;94616.06;;;24.02;92.07
28626;BME280;18905;42.668;23.364;2022-08-20T02:47:42;94645.78;;;24.18;91.30
28626;BME280;18905;42.668;23.364;2022-08-20T02:50:13;94548.63;;;23.43;94.16
28626;BME280;18905;42.668;23.364;2022-08-20T02:52:43;94529.22;;;23.20;94.84
28626;BME280;18905;42.668;23.364;2022-08-20T02:55:13;94570.56;;;23.54;94.79
28626;BME280;18905;42.668;23.364;2022-08-20T02:57:41;94525.28;;;23.21;94.78
28626;BME280;18905;42.668;23.364;2022-08-20T03:00:19;94592.50;;;23.61;95.18
28626;BME280;18905;42.668;23.364;2022-08-20T03:02:47;94531.66;;;23.11;95.62
28626;BME280;18905;42.668;23.364;2022-08-20T03:05:21;94553.38;;;23.02;98.73
28626;BME280;18905;42.668;23.364;2022-08-20T03:07:52;94589.03;;;23.16;99.52
28626;BME280;18905;42.668;23.364;2022-08-20T03:10:30;94522.53;;;22.81;99.46
28626;BME280;18905;42.668;23.364;2022-08-20T03:13:03;94547.53;;;22.97;98.85
28626;BME280;18905;42.668;23.364;2022-08-20T03:15:49;94524.16;;;22.75;99.89
28626;BME280;18905;42.668;23.364;2022-08-20T03:18:17;94536.03;;;22.65;99.86
28626;BME280;18905;42.668;23.364;2022-08-20T03:20:46;94525.03;;;22.65;100.00
28626;BME280;18905;42.668;23.364;2022-08-20T03:23:14;94575.19;;;22.83;100.00
28626;BME280;18905;42.668;23.364;2022-08-20T03:25:40;94577.81;;;22.53;100.00
28626;BME280;18905;42.668;23.364;2022-08-20T03:28:06;94661.16;;;23.01;100.00
28626;BME280;18905;42.668;23.364;2022-08-20T03:30:33;94562.13;;;22.43;100.00
28626;BME280;18905;42.668;23.364;2022-08-20T03:32:59;94536.38;;;22.23;100.00
28626;BME280;18905;42.668;23.364;2022-08-20T03:35:27;94618.09;;;22.80;100.00
28626;BME280;18905;42.668;23.364;2022-08-20T03:37:55;94585.56;;;22.65;100.00
28626;BME280;18905;42.668;23.364;2022-08-20T03:40:28;94616.81;;;22.92;100.00
28626;BME280;18905;42.668;23.364;2022-08-20T03:43:08;94537.00;;;22.41;100.00
28626;BME280;18905;42.668;23.364;2022-08-20T03:45:37;94619.19;;;22.86;100.00
28626;BME280;18905;42.668;23.364;2022-08-20T03:48:12;94620.78;;;22.87;100.00
28626;BME280;18905;42.668;23.364;2022-08-20T03:50:41;94590.91;;;22.86;100.00
28626;BME280;18905;42.668;23.364;2022-08-20T03:53:16;94551.03;;;22.60;100.00
28626;BME280;18905;42.668;23.364;2022-08-20T03:55:47;94537.44;;;22.36;100.00
28626;BME280;18905;42.668;23.364;2022-08-20T03:58:17;94679.13;;;23.16;100.00
28626;BME280;18905;42.668;23.364;2022-08-20T04:00:49;94553.47;;;22.48;100.00
28626;BME280;18905;42.668;23.364;2022-08-20T04:03:17;94634.13;;;22.92;100.00
28626;BME280;18905;42.668;23.364;2022-08-20T04:05:43;94530.91;;;22.16;100.00
28626;BME280;18905;42.668;23.364;2022-08-20T04:08:16;94552.72;;;22.40;100.00
28626;BME280;18905;42.668;23.364;2022-08-20T04:10:43;94617.66;;;22.85;100.00
28626;BME280;18905;42.668;23.364;2022-08-20T04:13:15;94542.94;;;22.36;100.00
28626;BME280;18905;42.668;23.364;2022-08-20T04:15:43;94545.22;;;22.48;100.00
28626;BME280;18905;42.668;23.364;2022-08-20T04:18:12;94531.06;;;22.53;100.00
28626;BME280;18905;42.668;23.364;2022-08-20T04:20:41;94553.66;;;22.71;100.00
28626;BME280;18905;42.668;23.364;2022-08-20T04:23:08;94674.28;;;23.34;100.00
28626;BME280;18905;42.668;23.364;2022-08-20T04:25:35;94630.75;;;23.55;100.00
28626;BME280;18905;42.668;23.364;2022-08-20T04:28:06;94557.69;;;23.74;97.40
28626;BME280;18905;42.668;23.364;2022-08-20T04:30:36;94550.22;;;24.31;90.13
28626;BME280;18905;42.668;23.364;2022-08-20T04:33:06;94598.81;;;25.01;89.67
28626;BME280;18905;42.668;23.364;2022-08-20T04:40:59;94577.78;;;25.07;87.17
28626;BME280;18905;42.668;23.364;2022-08-20T04:46:13;94677.19;;;26.38;82.60
28626;BME280;18905;42.668;23.364;2022-08-20T04:49:07;94639.06;;;26.45;82.88
28626;BME280;18905;42.668;23.364;2022-08-20T05:00:48;94599.41;;;27.16;72.14
28626;BME280;18905;42.668;23.364;2022-08-20T05:03:15;94679.38;;;27.78;69.05
28626;BME280;18905;42.668;23.364;2022-08-20T05:05:42;94591.53;;;27.30;69.58
28626;BME280;18905;42.668;23.364;2022-08-20T05:08:09;94678.28;;;27.75;72.48
28626;BME280;18905;42.668;23.364;2022-08-20T05:10:35;94681.19;;;28.00;71.23
28626;BME280;18905;42.668;23.364;2022-08-20T05:13:02;94668.78;;;28.05;69.50
28626;BME280;18905;42.668;23.364;2022-08-20T05:15:28;94684.13;;;28.09;69.78
28626;BME280;18905;42.668;23.364;2022-08-20T05:20:55;94612.50;;;27.60;68.32
28626;BME280;18905;42.668;23.364;2022-08-20T05:23:25;94639.63;;;27.68;69.02
28626;BME280;18905;42.668;23.364;2022-08-20T05:25:51;94648.88;;;27.94;69.76
28626;BME280;18905;42.668;23.364;2022-08-20T05:28:27;94685.47;;;27.89;69.78
28626;BME280;18905;42.668;23.364;2022-08-20T05:30:56;94615.75;;;27.87;69.24
28626;BME280;18905;42.668;23.364;2022-08-20T05:33:22;94645.81;;;28.46;66.33
28626;BME280;18905;42.668;23.364;2022-08-20T05:35:51;94645.84;;;28.58;66.28
28626;BME280;18905;42.668;23.364;2022-08-20T05:38:20;94677.31;;;29.05;64.01
28626;BME280;18905;42.668;23.364;2022-08-20T05:40:47;94669.53;;;29.13;64.71
28626;BME280;18905;42.668;23.364;2022-08-20T05:43:13;94660.53;;;29.21;63.93
28626;BME280;18905;42.668;23.364;2022-08-20T05:45:40;94681.75;;;29.40;62.22
28626;BME280;18905;42.668;23.364;2022-08-20T05:48:09;94626.06;;;29.19;61.59
28626;BME280;18905;42.668;23.364;2022-08-20T05:50:36;94672.28;;;29.63;60.90
28626;BME280;18905;42.668;23.364;2022-08-20T05:53:02;94641.88;;;29.68;59.23
28626;BME280;18905;42.668;23.364;2022-08-20T05:55:28;94604.16;;;29.55;62.26
28626;BME280;18905;42.668;23.364;2022-08-20T05:58:01;94641.66;;;29.97;58.96
28626;BME280;18905;42.668;23.364;2022-08-20T06:00:28;94656.38;;;30.19;57.48
28626;BME280;18905;42.668;23.364;2022-08-20T06:02:54;94670.00;;;29.83;59.86
28626;BME280;18905;42.668;23.364;2022-08-20T06:08:25;94600.03;;;27.96;68.89
28626;BME280;18905;42.668;23.364;2022-08-20T06:10:52;94657.28;;;28.60;67.78
28626;BME280;18905;42.668;23.364;2022-08-20T06:13:17;94611.66;;;28.32;67.11
28626;BME280;18905;42.668;23.364;2022-08-20T06:15:43;94612.19;;;28.15;67.80
28626;BME280;18905;42.668;23.364;2022-08-20T06:18:09;94665.16;;;28.74;67.49
28626;BME280;18905;42.668;23.364;2022-08-20T06:20:35;94590.41;;;28.67;68.02
28626;BME280;18905;42.668;23.364;2022-08-20T06:23:02;94604.69;;;29.28;65.67
28626;BME280;18905;42.668;23.364;2022-08-20T06:25:28;94628.50;;;29.97;62.28
28626;BME280;18905;42.668;23.364;2022-08-20T06:27:53;94661.00;;;30.13;60.30
28626;BME280;18905;42.668;23.364;2022-08-20T06:30:19;94654.84;;;29.84;60.29
28626;BME280;18905;42.668;23.364;2022-08-20T06:32:44;94622.41;;;29.68;61.58
28626;BME280;18905;42.668;23.364;2022-08-20T06:35:10;94624.75;;;29.70;60.01
28626;BME280;18905;42.668;23.364;2022-08-20T06:37:37;94657.28;;;29.82;62.42
28626;BME280;18905;42.668;23.364;2022-08-20T06:40:08;94667.91;;;30.08;60.69
28626;BME280;18905;42.668;23.364;2022-08-20T06:42:34;94629.31;;;30.19;60.95
28626;BME280;18905;42.668;23.364;2022-08-20T06:45:00;94599.06;;;30.30;59.64
28626;BME280;18905;42.668;23.364;2022-08-20T06:47:30;94667.47;;;30.53;57.81
28626;BME280;18905;42.668;23.364;2022-08-20T06:49:56;94635.84;;;30.25;60.15
28626;BME280;18905;42.668;23.364;2022-08-20T06:52:21;94609.69;;;30.44;59.29
28626;BME280;18905;42.668;23.364;2022-08-20T06:54:47;94584.34;;;30.51;60.12
28626;BME280;18905;42.668;23.364;2022-08-20T06:57:12;94643.72;;;31.00;58.93
28626;BME280;18905;42.668;23.364;2022-08-20T06:59:38;94592.53;;;30.24;58.14
28626;BME280;18905;42.668;23.364;2022-08-20T07:02:03;94590.41;;;30.89;57.92
28626;BME280;18905;42.668;23.364;2022-08-20T07:04:29;94627.50;;;31.74;54.66
28626;BME280;18905;42.668;23.364;2022-08-20T07:06:55;94642.44;;;31.89;55.07
28626;BME280;18905;42.668;23.364;2022-08-20T07:09:23;94632.16;;;32.22;53.33
28626;BME280;18905;42.668;23.364;2022-08-20T07:11:50;94585.03;;;31.79;51.57
28626;BME280;18905;42.668;23.364;2022-08-20T07:14:17;94587.00;;;32.24;49.20
28626;BME280;18905;42.668;23.364;2022-08-20T07:16:43;94581.59;;;31.57;51.99
28626;BME280;18905;42.668;23.364;2022-08-20T07:19:09;94598.28;;;31.30;52.38
28626;BME280;18905;42.668;23.364;2022-08-20T07:21:35;94601.31;;;31.72;52.45
28626;BME280;18905;42.668;23.364;2022-08-20T07:24:01;94574.00;;;31.58;51.10
28626;BME280;18905;42.668;23.364;2022-08-20T07:26:26;94558.59;;;31.17;52.13
28626;BME280;18905;42.668;23.364;2022-08-20T07:28:52;94635.88;;;31.74;52.57
28626;BME280;18905;42.668;23.364;2022-08-20T07:31:18;94570.91;;;31.92;49.91
28626;BME280;18905;42.668;23.364;2022-08-20T07:34:03;94590.00;;;32.02;50.82
28626;BME280;18905;42.668;23.364;2022-08-20T07:36:29;94623.69;;;32.85;49.20
28626;BME280;18905;42.668;23.364;2022-08-20T07:38:54;94552.88;;;32.20;48.80
28626;BME280;18905;42.668;23.364;2022-08-20T07:41:20;94624.91;;;32.16;50.89
28626;BME280;18905;42.668;23.364;2022-08-20T07:43:46;94603.03;;;32.14;50.45
28626;BME280;18905;42.668;23.364;2022-08-20T07:46:13;94598.69;;;31.95;51.49
28626;BME280;18905;42.668;23.364;2022-08-20T07:48:41;94572.16;;;31.91;50.31
28626;BME280;18905;42.668;23.364;2022-08-20T07:51:10;94625.50;;;32.11;50.50
28626;BME280;18905;42.668;23.364;2022-08-20T07:53:37;94614.03;;;31.82;51.91
28626;BME280;18905;42.668;23.364;2022-08-20T07:56:04;94565.34;;;31.92;51.59
28626;BME280;18905;42.668;23.364;2022-08-20T07:58:31;94551.00;;;32.44;49.43
28626;BME280;18905;42.668;23.364;2022-08-20T08:00:56;94626.94;;;33.25;47.10
28626;BME280;18905;42.668;23.364;2022-08-20T08:03:22;94545.13;;;32.83;47.59
28626;BME280;18905;42.668;23.364;2022-08-20T08:05:48;94614.19;;;32.23;49.80
28626;BME280;18905;42.668;23.364;2022-08-20T08:08:20;94613.75;;;31.80;51.05
28626;BME280;18905;42.668;23.364;2022-08-20T08:10:48;94618.75;;;32.71;48.65
28626;BME280;18905;42.668;23.364;2022-08-20T08:13:15;94571.53;;;31.96;49.39
28626;BME280;18905;42.668;23.364;2022-08-20T08:15:45;94598.81;;;32.37;49.41
28626;BME280;18905;42.668;23.364;2022-08-20T08:18:18;94583.69;;;32.61;49.17
28626;BME280;18905;42.668;23.364;2022-08-20T08:20:47;94571.59;;;32.64;49.19
28626;BME280;18905;42.668;23.364;2022-08-20T08:23:13;94617.03;;;32.74;48.08
28626;BME280;18905;42.668;23.364;2022-08-20T08:25:41;94598.03;;;32.96;47.66
28626;BME280;18905;42.668;23.364;2022-08-20T08:28:09;94572.50;;;33.12;46.34
28626;BME280;18905;42.668;23.364;2022-08-20T08:30:38;94617.00;;;33.33;47.12
28626;BME280;18905;42.668;23.364;2022-08-20T08:33:05;94538.56;;;32.86;46.70
28626;BME280;18905;42.668;23.364;2022-08-20T08:35:49;94597.81;;;33.88;46.07
28626;BME280;18905;42.668;23.364;2022-08-20T08:38:15;94575.06;;;33.95;47.30
28626;BME280;18905;42.668;23.364;2022-08-20T08:40:41;94601.28;;;33.83;45.72
28626;BME280;18905;42.668;23.364;2022-08-20T08:43:07;94568.78;;;33.38;45.46
28626;BME280;18905;42.668;23.364;2022-08-20T08:45:42;94590.63;;;33.49;46.18
28626;BME280;18905;42.668;23.364;2022-08-20T08:48:14;94530.47;;;33.68;45.47
28626;BME280;18905;42.668;23.364;2022-08-20T08:50:41;94574.84;;;33.60;45.61
28626;BME280;18905;42.668;23.364;2022-08-20T08:53:24;94587.88;;;33.63;46.98
28626;BME280;18905;42.668;23.364;2022-08-20T08:55:50;94530.25;;;33.95;44.79
28626;BME280;18905;42.668;23.364;2022-08-20T08:58:15;94551.88;;;33.94;43.75
28626;BME280;18905;42.668;23.364;2022-08-20T09:00:41;94577.06;;;33.94;44.55
28626;BME280;18905;42.668;23.364;2022-08-20T09:03:09;94564.34;;;33.93;43.45
28626;BME280;18905;42.668;23.364;2022-08-20T09:05:39;94559.59;;;33.38;43.54
28626;BME280;18905;42.668;23.364;2022-08-20T09:08:09;94528.31;;;32.92;44.75
28626;BME280;18905;42.668;23.364;2022-08-20T09:10:37;94520.16;;;32.71;44.67
28626;BME280;18905;42.668;23.364;2022-08-20T09:13:06;94530.97;;;32.45;45.94
28626;BME280;18905;42.668;23.364;2022-08-20T09:15:32;94483.16;;;32.76;44.99
28626;BME280;18905;42.668;23.364;2022-08-20T09:17:57;94505.81;;;33.34;44.39
28626;BME280;18905;42.668;23.364;2022-08-20T09:20:23;94528.34;;;33.77;43.99
28626;BME280;18905;42.668;23.364;2022-08-20T09:22:48;94542.28;;;33.86;45.16
28626;BME280;18905;42.668;23.364;2022-08-20T09:25:14;94514.66;;;33.79;44.27
28626;BME280;18905;42.668;23.364;2022-08-20T09:27:40;94513.59;;;33.77;43.79
28626;BME280;18905;42.668;23.364;2022-08-20T09:30:06;94566.34;;;34.45;42.77
28626;BME280;18905;42.668;23.364;2022-08-20T09:32:32;94564.28;;;34.31;42.36
28626;BME280;18905;42.668;23.364;2022-08-20T09:34:57;94501.38;;;34.32;41.74
28626;BME280;18905;42.668;23.364;2022-08-20T09:37:26;94530.44;;;34.78;41.30
28626;BME280;18905;42.668;23.364;2022-08-20T09:39:51;94505.22;;;34.64;41.50
28626;BME280;18905;42.668;23.364;2022-08-20T09:42:23;94541.59;;;34.58;42.83
28626;BME280;18905;42.668;23.364;2022-08-20T09:44:49;94478.38;;;34.14;42.00
28626;BME280;18905;42.668;23.364;2022-08-20T09:47:15;94514.97;;;33.96;42.09
28626;BME280;18905;42.668;23.364;2022-08-20T09:49:42;94430.66;;;33.03;43.45
28626;BME280;18905;42.668;23.364;2022-08-20T09:52:16;94464.78;;;32.84;44.39
28626;BME280;18905;42.668;23.364;2022-08-20T09:54:42;94463.72;;;32.49;45.14
28626;BME280;18905;42.668;23.364;2022-08-20T09:57:08;94536.06;;;33.21;44.37
28626;BME280;18905;42.668;23.364;2022-08-20T09:59:34;94464.13;;;32.98;44.19
28626;BME280;18905;42.668;23.364;2022-08-20T10:02:00;94462.53;;;33.20;43.13
28626;BME280;18905;42.668;23.364;2022-08-20T10:04:25;94518.00;;;33.69;42.78
28626;BME280;18905;42.668;23.364;2022-08-20T10:06:51;94506.28;;;33.09;42.90
28626;BME280;18905;42.668;23.364;2022-08-20T10:09:16;94508.13;;;33.59;44.38
28626;BME280;18905;42.668;23.364;2022-08-20T10:11:41;94453.22;;;33.23;42.96
28626;BME280;18905;42.668;23.364;2022-08-20T10:14:07;94478.84;;;32.98;43.59
28626;BME280;18905;42.668;23.364;2022-08-20T10:16:35;94514.91;;;34.19;43.00
28626;BME280;18905;42.668;23.364;2022-08-20T10:19:02;94530.38;;;35.07;40.04
28626;BME280;18905;42.668;23.364;2022-08-20T10:21:29;94460.03;;;34.91;39.05
28626;BME280;18905;42.668;23.364;2022-08-20T10:23:55;94473.44;;;36.95;36.96
28626;BME280;18905;42.668;23.364;2022-08-20T10:26:20;94507.50;;;37.97;35.16
28626;BME280;18905;42.668;23.364;2022-08-20T10:28:46;94451.91;;;37.34;35.52
28626;BME280;18905;42.668;23.364;2022-08-20T10:31:11;94466.84;;;35.85;37.20
28626;BME280;18905;42.668;23.364;2022-08-20T10:33:37;94507.63;;;35.40;38.31
28626;BME280;18905;42.668;23.364;2022-08-20T10:36:11;94518.50;;;35.33;39.08
28626;BME280;18905;42.668;23.364;2022-08-20T10:38:38;94465.00;;;35.36;39.51
28626;BME280;18905;42.668;23.364;2022-08-20T10:41:04;94514.22;;;35.97;38.12
28626;BME280;18905;42.668;23.364;2022-08-20T10:43:30;94464.44;;;35.98;36.83
28626;BME280;18905;42.668;23.364;2022-08-20T10:45:55;94488.66;;;34.95;38.43
28626;BME280;18905;42.668;23.364;2022-08-20T10:48:21;94457.59;;;34.49;40.01
28626;BME280;18905;42.668;23.364;2022-08-20T10:50:48;94448.63;;;34.16;39.51
28626;BME280;18905;42.668;23.364;2022-08-20T10:53:13;94443.28;;;33.75;39.64
28626;BME280;18905;42.668;23.364;2022-08-20T10:55:38;94468.25;;;33.49;41.46
28626;BME280;18905;42.668;23.364;2022-08-20T10:58:05;94481.34;;;33.81;41.30
28626;BME280;18905;42.668;23.364;2022-08-20T11:00:31;94426.78;;;33.91;40.61
28626;BME280;18905;42.668;23.364;2022-08-20T11:02:57;94489.66;;;33.90;40.31
28626;BME280;18905;42.668;23.364;2022-08-20T11:05:22;94458.31;;;33.25;41.11
28626;BME280;18905;42.668;23.364;2022-08-20T11:07:47;94449.47;;;32.79;41.84
28626;BME280;18905;42.668;23.364;2022-08-20T11:10:13;94474.00;;;32.75;42.17
28626;BME280;18905;42.668;23.364;2022-08-20T11:12:39;94472.19;;;32.63;42.06
28626;BME280;18905;42.668;23.364;2022-08-20T11:15:05;94427.63;;;32.36;42.26
28626;BME280;18905;42.668;23.364;2022-08-20T11:17:33;94480.84;;;32.74;42.76
28626;BME280;18905;42.668;23.364;2022-08-20T11:19:59;94493.09;;;32.77;42.19
28626;BME280;18905;42.668;23.364;2022-08-20T11:22:26;94414.41;;;32.04;42.79
28626;BME280;18905;42.668;23.364;2022-08-20T11:24:52;94427.78;;;31.73;43.79
28626;BME280;18905;42.668;23.364;2022-08-20T11:27:41;94453.81;;;31.97;43.99
28626;BME280;18905;42.668;23.364;2022-08-20T11:30:21;94451.88;;;32.12;43.48
28626;BME280;18905;42.668;23.364;2022-08-20T11:32:47;94410.03;;;32.03;43.10
28626;BME280;18905;42.668;23.364;2022-08-20T11:35:12;94426.72;;;32.21;42.45
28626;BME280;18905;42.668;23.364;2022-08-20T11:37:38;94444.06;;;32.67;41.66
28626;BME280;18905;42.668;23.364;2022-08-20T11:40:05;94393.41;;;32.50;41.63
28626;BME280;18905;42.668;23.364;2022-08-20T11:42:32;94415.59;;;32.77;41.67
28626;BME280;18905;42.668;23.364;2022-08-20T11:44:59;94397.06;;;32.24;42.07
28626;BME280;18905;42.668;23.364;2022-08-20T11:47:28;94425.44;;;32.64;42.27
28626;BME280;18905;42.668;23.364;2022-08-20T11:50:00;94379.72;;;32.52;42.07
28626;BME280;18905;42.668;23.364;2022-08-20T11:52:27;94411.25;;;32.76;40.12
28626;BME280;18905;42.668;23.364;2022-08-20T11:54:53;94419.41;;;32.65;41.53
28626;BME280;18905;42.668;23.364;2022-08-20T11:57:24;94418.13;;;32.66;40.64
28626;BME280;18905;42.668;23.364;2022-08-20T11:59:51;94435.31;;;32.74;40.25
28626;BME280;18905;42.668;23.364;2022-08-20T12:02:17;94430.25;;;32.40;39.62
28626;BME280;18905;42.668;23.364;2022-08-20T12:04:43;94401.78;;;32.09;39.24
28626;BME280;18905;42.668;23.364;2022-08-20T12:07:16;94439.38;;;32.40;39.33
28626;BME280;18905;42.668;23.364;2022-08-20T12:09:44;94433.84;;;32.22;39.24
28626;BME280;18905;42.668;23.364;2022-08-20T12:12:10;94397.72;;;31.77;39.65
28626;BME280;18905;42.668;23.364;2022-08-20T12:14:35;94413.19;;;31.87;39.45
28626;BME280;18905;42.668;23.364;2022-08-20T12:17:12;94401.59;;;31.71;39.28
28626;BME280;18905;42.668;23.364;2022-08-20T12:19:40;94409.19;;;31.70;39.92
28626;BME280;18905;42.668;23.364;2022-08-20T12:22:06;94425.19;;;31.61;40.14
28626;BME280;18905;42.668;23.364;2022-08-20T12:24:32;94368.81;;;31.12;41.89
28626;BME280;18905;42.668;23.364;2022-08-20T12:27:16;94403.81;;;31.13;43.75
28626;BME280;18905;42.668;23.364;2022-08-20T12:29:43;94382.91;;;30.81;45.60
28626;BME280;18905;42.668;23.364;2022-08-20T12:32:09;94438.38;;;31.24;48.36
28626;BME280;18905;42.668;23.364;2022-08-20T12:34:37;94402.25;;;30.94;47.91
28626;BME280;18905;42.668;23.364;2022-08-20T12:37:07;94424.88;;;31.05;57.63
28626;BME280;18905;42.668;23.364;2022-08-20T12:39:33;94421.63;;;30.97;66.46
28626;BME280;18905;42.668;23.364;2022-08-20T12:42:00;94416.34;;;30.81;81.36
28626;BME280;18905;42.668;23.364;2022-08-20T12:44:27;94435.00;;;30.14;76.07
28626;BME280;18905;42.668;23.364;2022-08-20T12:52:59;94413.16;;;27.08;100.00
28626;BME280;18905;42.668;23.364;2022-08-20T12:55:27;94392.78;;;26.58;100.00
28626;BME280;18905;42.668;23.364;2022-08-20T12:57:55;94497.41;;;27.39;98.78
28626;BME280;18905;42.668;23.364;2022-08-20T13:00:36;94477.94;;;27.43;100.00
28626;BME280;18905;42.668;23.364;2022-08-20T13:03:04;94440.66;;;27.44;100.00
28626;BME280;18905;42.668;23.364;2022-08-20T13:05:31;94419.19;;;27.73;100.00
28626;BME280;18905;42.668;23.364;2022-08-20T13:07:58;94387.63;;;27.42;100.00
28626;BME280;18905;42.668;23.364;2022-08-20T13:10:27;94415.69;;;27.97;100.00
28626;BME280;18905;42.668;23.364;2022-08-20T13:12:53;94376.16;;;27.93;100.00
28626;BME280;18905;42.668;23.364;2022-08-20T13:15:20;94425.34;;;28.43;100.00
28626;BME280;18905;42.668;23.364;2022-08-20T13:17:54;94413.94;;;28.75;100.00
28626;BME280;18905;42.668;23.364;2022-08-20T13:20:21;94391.56;;;28.79;100.00
28626;BME280;18905;42.668;23.364;2022-08-20T13:22:50;94415.47;;;29.10;100.00
28626;BME280;18905;42.668;23.364;2022-08-20T13:25:15;94384.88;;;28.89;100.00
28626;BME280;18905;42.668;23.364;2022-08-20T13:27:42;94432.22;;;29.19;100.00
28626;BME280;18905;42.668;23.364;2022-08-20T13:30:13;94435.78;;;28.98;100.00
28626;BME280;18905;42.668;23.364;2022-08-20T13:32:39;94434.44;;;28.90;100.00
28626;BME280;18905;42.668;23.364;2022-08-20T13:35:05;94462.66;;;29.01;100.00
28626;BME280;18905;42.668;23.364;2022-08-20T13:37:30;94453.81;;;28.81;100.00
28626;BME280;18905;42.668;23.364;2022-08-20T13:39:57;94435.06;;;28.60;100.00
28626;BME280;18905;42.668;23.364;2022-08-20T13:42:24;94467.53;;;28.13;100.00
28626;BME280;18905;42.668;23.364;2022-08-20T13:44:50;94486.84;;;28.29;100.00
28626;BME280;18905;42.668;23.364;2022-08-20T13:47:27;94410.19;;;27.69;100.00
28626;BME280;18905;42.668;23.364;2022-08-20T13:49:57;94434.91;;;27.51;100.00
28626;BME280;18905;42.668;23.364;2022-08-20T13:52:23;94489.34;;;28.86;100.00
28626;BME280;18905;42.668;23.364;2022-08-20T13:54:49;94425.38;;;29.54;100.00